الصفحة الرئيسية
METAR-TAF:

METAR-TAF

مطار :

مطار هواري بومدين الدولي

الجزائر, الجزائر

دائرة عرض: 36-43N, خط طول: 003-15E, ارتفاع: 25 متر

مراقبة الطقس الحالي

تاريخ ووقت الإصدار 33 دقيقة قبل الساعة 09:30UTC
ريح 8 عقدة من الشرق, الاتجاه يتراوح بين الشمال الشرقي و الشرق/الجنوب الشرقي
درجة الحرارة 28°درجة مئوية
الرطوبة 62%
ضغط 1021 hPa
الرؤية 10 كم أو أكثر
غيوم قليلة على ارتفاع 2000 قدم
غيوم متفرقة على ارتفاع 4000 قدم

METAR: DAAG 040930Z 08008KT 040V120 9999 FEW020 SCT040 28/20 Q1021

زمن: 11:03 (10:03 UTC)

توقعات

تاريخ ووقت الإصدار 5ساعات و 3 دقيقة قبل الساعة 05:00UTC
التوقعات صالحة من04 الساعة 06 UTC إلى 05 الساعة 06 UTC
ريح 2 عقدةمن اتجاهات متغيرة
الرؤية 10 كم أو أكثر
غيوم قليلة على ارتفاع 2000 قدم
أصبح
من 04 الساعة 07 UTC إلى 04 الساعة 10 UTC
ريح 13 عقدة من الشمال الشرقي
أصبح
من 04 الساعة 18 UTC إلى 04 الساعة 21 UTC
ريح 2 عقدةمن اتجاهات متغيرة

TAF: DAAG 040500Z 0406/0506 VRB02KT 9999 FEW020 BECMG 0407/0410 04013KT BECMG 0418/0421 VRB02KT

أرصاد الطقس والتوقعات من أكثر من 4000 مطار (تقارير الطقس للمطار METAR والتنبؤ بالطقس بالمطارTAF).

المحطات المتاحة هي النقط الصفراء والحمراء على الخريطة.

حرك المؤشر فوق النقطة لمعرفة اسم المحطة.

ثم انقر لمعرفة أرصاد وتوقعات الطقس.

لتغيير الخارطة: اضغط على الأزرار الخضراء مع رمز الصليب الأسود للتكبير. على الزر الأخضر مع شرطة للتصغير، أو على الأسهم الخضراء للخرائط المجاورة.


METAR-TAF: